createdAt,value
2023-04-30T00:00:03.154Z,100300.34
2023-04-30T00:02:37.968Z,100295.00
2023-04-30T00:05:05.562Z,100292.50
2023-04-30T00:07:32.381Z,100302.78
2023-04-30T00:09:59.118Z,100293.66
2023-04-30T00:12:25.840Z,100295.75
2023-04-30T00:14:52.670Z,100306.13
2023-04-30T00:17:19.506Z,100294.31
2023-04-30T00:19:46.474Z,100295.75
2023-04-30T00:22:13.187Z,100303.19
2023-04-30T00:24:40.028Z,100298.69
2023-04-30T00:27:06.816Z,100301.09
2023-04-30T00:29:33.631Z,100302.78
2023-04-30T00:32:00.427Z,100307.69
2023-04-30T00:34:27.739Z,100308.25
2023-04-30T00:36:54.567Z,100313.44
2023-04-30T00:39:21.343Z,100310.63
2023-04-30T00:41:48.061Z,100313.00
2023-04-30T00:44:14.806Z,100311.78
2023-04-30T00:46:41.672Z,100314.97
2023-04-30T00:49:08.579Z,100310.91
2023-04-30T00:51:35.633Z,100312.03
2023-04-30T00:54:03.315Z,100310.38
2023-04-30T00:56:33.579Z,100312.88
2023-04-30T00:59:00.348Z,100310.75
2023-04-30T01:01:31.909Z,100318.91
2023-04-30T01:03:58.725Z,100317.38
2023-04-30T01:06:26.798Z,100320.91
2023-04-30T01:08:54.110Z,100326.09
2023-04-30T01:11:23.985Z,100326.91
2023-04-30T01:13:56.881Z,100317.09
2023-04-30T01:16:26.527Z,100326.50
2023-04-30T01:19:00.972Z,100325.09
2023-04-30T01:21:31.160Z,100320.47
2023-04-30T01:24:39.443Z,100323.66
2023-04-30T01:27:37.773Z,100322.28
2023-04-30T01:30:05.173Z,100324.38
2023-04-30T01:32:32.047Z,100316.50
2023-04-30T01:34:59.715Z,100319.19
2023-04-30T01:37:46.346Z,100317.78
2023-04-30T01:40:20.913Z,100320.16
2023-04-30T01:42:50.797Z,100323.94
2023-04-30T01:45:48.063Z,100318.63
2023-04-30T01:48:22.910Z,100324.06
2023-04-30T01:50:52.323Z,100320.44
2023-04-30T01:53:25.547Z,100320.44
2023-04-30T01:55:57.972Z,100313.69
2023-04-30T01:58:25.690Z,100314.41
2023-04-30T02:00:53.219Z,100319.19
2023-04-30T02:03:20.260Z,100312.88
2023-04-30T02:05:47.758Z,100312.56
2023-04-30T02:08:14.699Z,100309.75
2023-04-30T02:10:41.479Z,100310.47
2023-04-30T02:13:08.299Z,100313.56
2023-04-30T02:15:35.256Z,100316.19
2023-04-30T02:18:02.068Z,100311.44
2023-04-30T02:20:28.883Z,100318.03
2023-04-30T02:22:55.769Z,100318.72
2023-04-30T02:25:22.591Z,100309.91
2023-04-30T02:27:50.631Z,100318.75
2023-04-30T02:30:17.492Z,100320.41
2023-04-30T02:32:44.269Z,100315.66
2023-04-30T02:35:12.073Z,100323.25
2023-04-30T02:37:38.937Z,100317.06
2023-04-30T02:40:13.583Z,100315.81
2023-04-30T02:42:40.415Z,100310.91
2023-04-30T02:45:07.589Z,100310.34
2023-04-30T02:47:34.375Z,100314.25
2023-04-30T02:50:01.220Z,100314.13
2023-04-30T02:52:28.291Z,100312.31
2023-04-30T02:54:55.286Z,100310.16
2023-04-30T02:57:22.259Z,100312.84
2023-04-30T02:59:49.304Z,100305.00
2023-04-30T03:02:16.827Z,100315.94
2023-04-30T03:04:43.822Z,100307.50
2023-04-30T03:07:11.444Z,100306.53
2023-04-30T03:09:38.300Z,100300.63
2023-04-30T03:12:05.853Z,100313.13
2023-04-30T03:14:32.745Z,100305.97
2023-04-30T03:16:59.594Z,100303.84
2023-04-30T03:19:28.639Z,100302.00
2023-04-30T03:21:55.549Z,100310.03
2023-04-30T03:24:22.328Z,100303.44
2023-04-30T03:26:49.168Z,100299.78
2023-04-30T03:29:16.155Z,100304.16
2023-04-30T03:31:42.989Z,100308.06
2023-04-30T03:34:10.084Z,100314.53
2023-04-30T03:36:37.921Z,100324.06
2023-04-30T03:39:04.827Z,100318.72
2023-04-30T03:41:31.706Z,100314.94
2023-04-30T03:43:58.485Z,100320.13
2023-04-30T03:46:25.269Z,100322.09
2023-04-30T03:48:52.424Z,100323.22
2023-04-30T03:51:20.691Z,100312.53
2023-04-30T03:53:47.497Z,100322.66
2023-04-30T03:56:14.632Z,100312.25
2023-04-30T03:58:43.674Z,100320.38
2023-04-30T04:01:10.711Z,100315.06
2023-04-30T04:03:38.131Z,100305.22
2023-04-30T04:06:05.429Z,100314.91
2023-04-30T04:08:33.100Z,100314.06
2023-04-30T04:11:00.245Z,100314.91
2023-04-30T04:13:27.036Z,100311.81
2023-04-30T04:15:54.036Z,100313.91
2023-04-30T04:18:21.575Z,100316.69
2023-04-30T04:20:48.339Z,100310.56
2023-04-30T04:23:16.740Z,100313.63
2023-04-30T04:25:44.373Z,100316.16
2023-04-30T04:28:11.764Z,100314.47
2023-04-30T04:30:40.896Z,100314.06
2023-04-30T04:33:08.877Z,100320.34
2023-04-30T04:35:35.750Z,100324.28
2023-04-30T04:38:05.190Z,100324.84
2023-04-30T04:40:33.071Z,100335.38
2023-04-30T04:42:59.887Z,100329.47
2023-04-30T04:45:26.769Z,100343.78
2023-04-30T04:47:53.894Z,100337.03
2023-04-30T04:50:21.436Z,100337.03
2023-04-30T04:52:48.254Z,100336.06
2023-04-30T04:55:17.712Z,100340.00
2023-04-30T04:57:45.617Z,100345.59
2023-04-30T05:00:13.173Z,100349.09
2023-04-30T05:02:40.083Z,100349.09
2023-04-30T05:05:07.892Z,100348.56
2023-04-30T05:07:35.230Z,100342.13
2023-04-30T05:10:04.769Z,100348.84
2023-04-30T05:12:33.466Z,100341.09
2023-04-30T05:15:00.629Z,100344.03
2023-04-30T05:17:27.497Z,100345.19
2023-04-30T05:19:54.579Z,100345.59
2023-04-30T05:22:21.638Z,100352.06
2023-04-30T05:24:48.710Z,100355.03
2023-04-30T05:27:16.817Z,100343.09
2023-04-30T05:29:45.781Z,100348.00
2023-04-30T05:32:12.613Z,100352.81
2023-04-30T05:34:39.436Z,100341.28
2023-04-30T05:37:06.183Z,100358.84
2023-04-30T05:39:33.068Z,100360.41
2023-04-30T05:42:00.075Z,100359.84
2023-04-30T05:44:26.979Z,100345.81
2023-04-30T05:46:53.748Z,100342.47
2023-04-30T05:49:20.518Z,100357.44
2023-04-30T05:51:47.301Z,100347.50
2023-04-30T05:54:13.952Z,100345.81
2023-04-30T05:56:40.763Z,100353.41
2023-04-30T05:59:07.704Z,100346.94
2023-04-30T06:01:35.706Z,100338.13
2023-04-30T06:04:04.806Z,100345.41
2023-04-30T06:06:34.582Z,100347.66
2023-04-30T06:09:01.432Z,100346.81
2023-04-30T06:11:28.234Z,100344.03
2023-04-30T06:13:54.977Z,100349.19
2023-04-30T06:16:21.962Z,100346.00
2023-04-30T06:18:49.116Z,100356.94
2023-04-30T06:21:16.182Z,100354.69
2023-04-30T06:23:45.727Z,100355.13
2023-04-30T06:26:16.265Z,100371.53
2023-04-30T06:28:43.195Z,100368.13
2023-04-30T06:31:10.017Z,100367.19
2023-04-30T06:33:37.204Z,100359.72
2023-04-30T06:36:04.346Z,100367.63
2023-04-30T06:38:31.108Z,100364.94
2023-04-30T06:40:57.930Z,100362.28
2023-04-30T06:43:27.790Z,100363.25
2023-04-30T06:45:54.770Z,100360.59
2023-04-30T06:48:21.676Z,100351.16
2023-04-30T06:50:48.512Z,100371.13
2023-04-30T06:53:15.509Z,100369.28
2023-04-30T06:55:49.934Z,100380.09
2023-04-30T06:58:16.904Z,100363.13
2023-04-30T07:00:49.757Z,100363.53
2023-04-30T07:03:16.781Z,100357.63
2023-04-30T07:05:44.335Z,100359.47
2023-04-30T07:08:16.701Z,100376.19
2023-04-30T07:10:52.324Z,100360.34
2023-04-30T07:13:32.780Z,100351.22
2023-04-30T07:16:06.719Z,100348.56
2023-04-30T07:18:35.629Z,100357.50
2023-04-30T07:21:02.723Z,100352.75
2023-04-30T07:23:30.625Z,100352.34
2023-04-30T07:26:03.557Z,100355.72
2023-04-30T07:28:30.710Z,100355.25
2023-04-30T07:31:03.220Z,100352.19
2023-04-30T07:33:33.507Z,100354.13
2023-04-30T07:36:08.659Z,100359.19
2023-04-30T07:38:41.830Z,100352.44
2023-04-30T07:41:11.852Z,100343.28
2023-04-30T07:44:01.364Z,100341.47
2023-04-30T07:46:45.128Z,100339.66
2023-04-30T07:49:13.978Z,100346.53
2023-04-30T07:51:45.076Z,100354.25
2023-04-30T07:54:15.980Z,100345.69
2023-04-30T07:56:43.198Z,100346.75
2023-04-30T07:59:10.186Z,100348.88
2023-04-30T08:01:40.157Z,100351.81
2023-04-30T08:04:10.775Z,100346.00
2023-04-30T08:06:37.805Z,100343.19
2023-04-30T08:09:04.974Z,100347.09
2023-04-30T08:11:31.978Z,100366.81
2023-04-30T08:13:58.780Z,100354.81
2023-04-30T08:16:28.635Z,100355.81
2023-04-30T08:18:55.910Z,100349.47
2023-04-30T08:21:31.649Z,100358.09
2023-04-30T08:24:01.503Z,100358.06
2023-04-30T08:26:32.068Z,100344.41
2023-04-30T08:29:01.088Z,100339.34
2023-04-30T08:31:29.042Z,100335.16
2023-04-30T08:33:59.062Z,100342.25
2023-04-30T08:36:28.874Z,100334.50
2023-04-30T08:38:55.799Z,100331.94
2023-04-30T08:41:26.273Z,100342.59
2023-04-30T08:43:53.894Z,100326.56
2023-04-30T08:46:21.744Z,100328.63
2023-04-30T08:48:48.985Z,100333.13
2023-04-30T08:51:16.341Z,100335.38
2023-04-30T08:53:44.711Z,100341.94
2023-04-30T08:56:11.656Z,100330.09
2023-04-30T08:58:40.865Z,100338.19
2023-04-30T09:01:13.679Z,100345.06
2023-04-30T09:03:40.712Z,100343.47
2023-04-30T09:09:12.709Z,100346.16
2023-04-30T09:11:42.162Z,100339.56
2023-04-30T09:14:09.092Z,100329.34
2023-04-30T09:16:55.365Z,100336.22
2023-04-30T09:19:33.447Z,100336.22
2023-04-30T09:22:23.322Z,100343.56
2023-04-30T09:24:58.435Z,100339.84
2023-04-30T09:27:32.242Z,100341.06
2023-04-30T09:30:08.738Z,100349.16
2023-04-30T09:32:55.809Z,100333.56
2023-04-30T09:35:29.870Z,100333.56
2023-04-30T09:37:56.947Z,100320.88
2023-04-30T09:40:38.136Z,100326.94
2023-04-30T09:43:08.284Z,100333.34
2023-04-30T09:45:53.851Z,100333.50
2023-04-30T09:48:25.737Z,100323.34
2023-04-30T09:50:59.173Z,100319.75
2023-04-30T09:53:26.867Z,100331.53
2023-04-30T09:55:55.672Z,100337.56
2023-04-30T09:58:26.423Z,100334.44
2023-04-30T10:01:07.246Z,100327.38
2023-04-30T10:03:35.677Z,100325.09
2023-04-30T10:06:03.596Z,100316.75
2023-04-30T10:08:36.474Z,100323.34
2023-04-30T10:11:06.000Z,100321.50
2023-04-30T10:13:45.893Z,100314.47
2023-04-30T10:16:32.996Z,100313.63
2023-04-30T10:19:07.322Z,100323.56
2023-04-30T10:21:36.965Z,100311.03
2023-04-30T10:24:07.059Z,100312.41
2023-04-30T10:26:34.054Z,100317.75
2023-04-30T10:29:03.337Z,100298.72
2023-04-30T10:31:30.926Z,100297.72
2023-04-30T10:34:33.616Z,100297.13
2023-04-30T10:37:06.978Z,100305.91
2023-04-30T10:39:35.601Z,100298.41
2023-04-30T10:42:04.211Z,100295.13
2023-04-30T10:44:35.336Z,100295.84
2023-04-30T10:47:02.743Z,100304.22
2023-04-30T10:49:30.592Z,100295.03
2023-04-30T10:52:05.212Z,100287.59
2023-04-30T10:54:34.615Z,100288.97
2023-04-30T10:57:14.723Z,100277.53
2023-04-30T10:59:51.918Z,100292.97
2023-04-30T11:02:18.807Z,100286.63
2023-04-30T11:05:07.770Z,100280.66
2023-04-30T11:07:37.280Z,100280.66
2023-04-30T11:10:11.899Z,100274.50
2023-04-30T11:12:58.035Z,100276.84
2023-04-30T11:15:38.205Z,100276.69
2023-04-30T11:18:08.242Z,100266.75
2023-04-30T11:20:58.811Z,100277.13
2023-04-30T11:23:41.740Z,100268.31
2023-04-30T11:26:09.354Z,100279.75
2023-04-30T11:28:37.835Z,100291.63
2023-04-30T11:31:04.832Z,100261.47
2023-04-30T11:33:34.906Z,100265.69
2023-04-30T11:36:02.510Z,100273.72
2023-04-30T11:38:49.434Z,100267.66
2023-04-30T11:41:56.045Z,100253.94
2023-04-30T11:44:27.032Z,100252.56
2023-04-30T11:46:58.920Z,100249.09
2023-04-30T11:49:28.271Z,100246.09
2023-04-30T11:52:00.634Z,100243.28
2023-04-30T11:54:42.064Z,100245.28
2023-04-30T11:57:26.122Z,100242.97
2023-04-30T11:59:53.539Z,100249.00
2023-04-30T12:02:24.678Z,100253.31
2023-04-30T12:05:00.878Z,100250.63
2023-04-30T12:07:35.935Z,100258.28
2023-04-30T12:10:13.438Z,100239.50
2023-04-30T12:12:47.040Z,100246.06
2023-04-30T12:15:21.819Z,100234.31
2023-04-30T12:17:56.979Z,100244.03
2023-04-30T12:20:30.434Z,100228.97
2023-04-30T12:23:16.624Z,100221.00
2023-04-30T12:25:49.834Z,100225.06
2023-04-30T12:28:45.358Z,100213.03
2023-04-30T12:31:18.984Z,100220.25
2023-04-30T12:34:02.772Z,100217.41
2023-04-30T12:36:51.775Z,100221.41
2023-04-30T12:39:24.863Z,100220.72
2023-04-30T12:42:03.663Z,100220.09
2023-04-30T12:44:52.174Z,100201.81
2023-04-30T12:47:27.176Z,100207.91
2023-04-30T12:50:19.024Z,100198.19
2023-04-30T12:52:55.930Z,100193.69
2023-04-30T12:55:30.027Z,100209.94
2023-04-30T12:58:17.915Z,100183.78
2023-04-30T13:00:55.612Z,100196.03
2023-04-30T13:03:29.218Z,100180.78
2023-04-30T13:05:56.792Z,100175.25
2023-04-30T13:08:31.487Z,100169.94
2023-04-30T13:11:11.567Z,100172.63
2023-04-30T13:13:40.303Z,100178.31
2023-04-30T13:16:14.077Z,100169.25
2023-04-30T13:18:41.139Z,100165.88
2023-04-30T13:21:10.910Z,100164.59
2023-04-30T13:23:51.885Z,100164.56
2023-04-30T13:26:34.019Z,100164.91
2023-04-30T13:29:31.955Z,100165.72
2023-04-30T13:32:06.597Z,100151.47
2023-04-30T13:34:38.892Z,100152.47
2023-04-30T13:37:07.223Z,100151.84
2023-04-30T13:40:01.353Z,100154.84
2023-04-30T13:43:05.960Z,100149.97
2023-04-30T13:57:46.123Z,100140.09
2023-04-30T14:00:25.488Z,100129.56
2023-04-30T14:03:08.115Z,100128.53
2023-04-30T14:07:14.879Z,100120.69
2023-04-30T14:14:41.229Z,100117.63
2023-04-30T14:21:41.577Z,100128.53
2023-04-30T14:25:47.583Z,100134.41
2023-04-30T14:29:32.625Z,100113.94
2023-04-30T14:43:51.333Z,100073.19
2023-04-30T14:51:59.762Z,100084.25
2023-04-30T14:55:08.771Z,100084.75
2023-04-30T14:57:57.230Z,100081.72
2023-04-30T15:00:41.238Z,100073.03
2023-04-30T15:03:19.639Z,100075.38
2023-04-30T15:05:52.730Z,100068.31
2023-04-30T15:08:42.256Z,100061.94
2023-04-30T15:11:26.771Z,100062.41
2023-04-30T15:14:06.871Z,100061.06
2023-04-30T15:16:45.276Z,100062.56
2023-04-30T15:23:18.368Z,100065.94
2023-04-30T15:25:54.525Z,100052.88
2023-04-30T15:28:39.033Z,100058.88
2023-04-30T15:31:25.884Z,100058.03
2023-04-30T15:34:06.321Z,100062.88
2023-04-30T15:44:33.180Z,100048.13
2023-04-30T15:47:49.482Z,100047.66
2023-04-30T15:50:27.297Z,100051.69
2023-04-30T15:53:01.749Z,100048.13
2023-04-30T15:55:39.344Z,100046.63
2023-04-30T15:58:16.177Z,100035.44
2023-04-30T16:01:13.541Z,100033.09
2023-04-30T16:03:50.724Z,100032.06
2023-04-30T16:06:22.578Z,100035.44
2023-04-30T16:08:53.115Z,100029.69
2023-04-30T16:11:30.264Z,100015.63
2023-04-30T16:14:35.427Z,100018.97
2023-04-30T16:17:22.588Z,100010.09
2023-04-30T16:20:11.320Z,100009.06
2023-04-30T16:22:47.113Z,100007.41
2023-04-30T16:25:23.419Z,100009.72
2023-04-30T16:27:59.905Z,100001.00
2023-04-30T16:30:33.732Z,100006.69
2023-04-30T16:33:05.656Z,99993.81
2023-04-30T16:35:36.153Z,99996.50
2023-04-30T16:42:10.437Z,99996.84
2023-04-30T16:44:54.600Z,99988.97
2023-04-30T16:47:45.346Z,99988.81
2023-04-30T16:50:17.126Z,99986.78
2023-04-30T16:53:22.381Z,99988.81
2023-04-30T16:57:00.203Z,99989.34
2023-04-30T17:00:48.664Z,99989.19
2023-04-30T17:14:19.481Z,99972.72
2023-04-30T17:17:29.070Z,99976.09
2023-04-30T17:20:15.645Z,99972.91
2023-04-30T17:26:47.555Z,99970.03
2023-04-30T17:29:35.264Z,99979.94
2023-04-30T17:32:17.812Z,99969.06
2023-04-30T17:34:52.153Z,99973.75
2023-04-30T17:37:19.274Z,99966.88
2023-04-30T17:39:46.446Z,99972.06
2023-04-30T17:42:13.360Z,99970.56
2023-04-30T17:44:40.071Z,99972.41
2023-04-30T17:47:07.218Z,99970.75
2023-04-30T17:49:33.911Z,99973.78
2023-04-30T17:52:01.228Z,99977.47
2023-04-30T17:54:31.451Z,99974.47
2023-04-30T17:56:59.161Z,99977.81
2023-04-30T17:59:28.522Z,99980.50
2023-04-30T18:01:55.321Z,99978.34
2023-04-30T18:04:22.764Z,99984.22
2023-04-30T18:06:49.648Z,99978.53
2023-04-30T18:09:16.502Z,99984.22
2023-04-30T18:11:43.583Z,99987.75
2023-04-30T18:14:20.110Z,99986.41
2023-04-30T18:16:52.475Z,99986.91
2023-04-30T18:19:21.727Z,99979.53
2023-04-30T18:21:58.116Z,99977.53
2023-04-30T18:24:35.454Z,99982.25
2023-04-30T18:27:12.274Z,99979.06
2023-04-30T18:29:48.498Z,99975.56
2023-04-30T18:32:39.180Z,99975.25
2023-04-30T18:35:14.592Z,99970.06
2023-04-30T18:37:53.188Z,99974.94
2023-04-30T18:40:45.628Z,99976.94
2023-04-30T18:43:21.110Z,99981.63
2023-04-30T18:46:18.438Z,99981.63
2023-04-30T18:49:08.301Z,99983.97
2023-04-30T18:52:29.565Z,99989.00
2023-04-30T18:55:23.924Z,99992.34
2023-04-30T19:01:53.708Z,99995.03
2023-04-30T19:04:52.656Z,99997.19
2023-04-30T19:07:59.881Z,100009.06
2023-04-30T19:11:20.925Z,100004.97
2023-04-30T19:14:01.194Z,100005.69
2023-04-30T19:18:36.374Z,100011.00
2023-04-30T19:21:04.677Z,100008.31
2023-04-30T19:27:42.887Z,100017.16
2023-04-30T19:30:29.253Z,100025.81
2023-04-30T19:33:28.821Z,100020.19
2023-04-30T19:40:42.199Z,100023.13
2023-04-30T19:47:27.132Z,100020.31
2023-04-30T19:50:40.190Z,100031.97
2023-04-30T19:53:17.328Z,100019.78
2023-04-30T19:56:10.436Z,100020.31
2023-04-30T19:59:06.255Z,100018.66
2023-04-30T20:01:44.963Z,100020.47
2023-04-30T20:04:42.041Z,100029.31
2023-04-30T20:07:42.498Z,100016.75
2023-04-30T20:10:43.887Z,100027.53
2023-04-30T20:13:41.599Z,100037.28
2023-04-30T20:20:04.783Z,100025.84
2023-04-30T20:26:59.595Z,100027.91
2023-04-30T20:42:18.368Z,100032.09
2023-04-30T20:50:09.710Z,100028.28
2023-04-30T20:56:51.091Z,100027.16
2023-04-30T21:00:07.930Z,100020.66
2023-04-30T21:07:37.340Z,100025.75
2023-04-30T21:10:51.307Z,100021.84
2023-04-30T21:14:28.561Z,100019.78
2023-04-30T21:17:41.055Z,100017.44
2023-04-30T21:24:31.826Z,100014.91
2023-04-30T21:28:07.178Z,100021.84
2023-04-30T21:35:37.744Z,100021.94
2023-04-30T21:50:12.446Z,100026.53
2023-04-30T22:13:38.910Z,100014.19
2023-04-30T22:16:58.713Z,100005.34
2023-04-30T22:19:54.786Z,100014.19
2023-04-30T22:26:56.911Z,100015.19
2023-04-30T22:30:11.789Z,100001.59
2023-04-30T22:33:29.256Z,100007.25
2023-04-30T22:36:36.207Z,100009.22
2023-04-30T22:43:52.150Z,100005.66
2023-04-30T22:57:15.106Z,99991.59
2023-04-30T23:00:00.910Z,99986.44
2023-04-30T23:03:34.211Z,99993.41
2023-04-30T23:09:43.626Z,99990.75
2023-04-30T23:13:16.925Z,99991.47
2023-04-30T23:16:35.293Z,99992.34
2023-04-30T23:23:18.214Z,99993.53
2023-04-30T23:26:15.909Z,99988.59
2023-04-30T23:38:17.346Z,99984.50
2023-04-30T23:41:49.592Z,99971.13
2023-04-30T23:55:41.656Z,99967.81
2023-04-30T23:58:47.563Z,99958.06
